首页
METAR-TAF:

METAR-TAF

机场 :

Sligo, 爱尔兰

纬度: 54-16-49N, 经度: 8-35-57W, 海拔: 3米

当前天气观测

该预报发布于2小时和54分钟前的20:30 UTC
风速13节,风向
温度 11°C
湿度 71%
气压 1017 hPa
能见度10公里或以上
少量云层高于2800英尺
散云层高于3500英尺

METAR: EISG 032030Z 35013KT 9999 FEW028 SCT035 11/06 Q1017

时间: 00:24 (23:24 UTC)

预报

该预报发布于3小时和24分钟前的20:00 UTC
预报有效从03日的 21点(UTC)到 04日的 06点(UTC)
风速14节,风向
能见度10公里或以上
多云层高于3500英尺
成为
从 03日的 23点(UTC)到 04日的 01点(UTC)
风速12节,风向北转西北

TAF: EISG 032000Z 0321/0406 36014KT 9999 BKN035 BECMG 0323/0401 33012KT

超过4000个机场的气象观测和天气预报(METAR&TAF报告)。

可查询的气象台以黄色和红色小点在地图上表示。

将鼠标移到小点上方,可查看气象台名称。

然后点击查看天气观测和预报。

如需切换地图:点击带黑十字的绿色按钮放大地图;点击带横线的绿色按钮缩小地图;或者点击绿色箭头查看邻近地区的地图。


METAR-TAF: